Arthur Maersk — OXJH2 — position and weather

sailwx.info

Track history (hours):
 
Tides and Currents Weather Stations Pressure Air Temp Water Temp Dewpoint Dewpoint Depression Visibility Wind Speed Wind Dir Waves Ship Positions

Arthur Maersk

Last reported at 2015-Feb-23 13:33 UTC. Time now 2015-Mar-03 08:57 UTC.
Position N 01°51' E 102°28'.

Length 352 m; draft 12.5 m.

Type: Cargo ship. MMSI: 220221000.

Date/timePositionNaut miles runAvg speedWind from/ knotsBaromVisibWave heightAir tempDewpointWater temp
2015-Feb-23 13:33N 01°51' E 102°28'6420.3
2015-Feb-23 10:24N 01°16' E 103°21'2412.4
2015-Feb-23 08:28N 01°16' E 103°45'0 0.4
2015-Feb-23 07:11N 01°16' E 103°46'0 0.0
2015-Feb-23 03:26N 01°16' E 103°46'4 0.1
2015-Feb-22 00:24N 01°13' E 103°48'6 6.1
2015-Feb-21 23:25N 01°13' E 103°54'5 5.9
2015-Feb-21 22:32N 01°15' E 103°58'6 5.8
2015-Feb-21 21:33N 01°16' E 104°04'6 6.0
2015-Feb-21 20:33N 01°17' E 104°10'2 2.3
2015-Feb-21 19:33N 01°17' E 104°12'3 2.7
2015-Feb-21 18:33N 01°18' E 104°15'4 3.3
2015-Feb-21 17:30N 01°19' E 104°18'  
2015-Feb-18 08:21N 21°57' E 114°27'1617.5
2015-Feb-18 07:27N 22°12' E 114°30'26 8.8
2015-Feb-18 04:31N 22°34' E 114°16'0 0.0
2015-Feb-17 16:31N 22°34' E 114°16'1 0.6
2015-Feb-17 15:30N 22°34' E 114°17'17 8.4
2015-Feb-17 13:32N 22°23' E 114°30'20212.4
2015-Feb-16 21:20N 23°34' E 117°55'1013.2
2015-Feb-16 20:33N 23°40' E 118°04'1513.7
2015-Feb-16 19:30N 23°48' E 118°17'1313.8
2015-Feb-16 18:33N 23°56' E 118°28'1614.1
2015-Feb-16 17:27N 24°05' E 118°42'1414.0
2015-Feb-16 16:27N 24°14' E 118°54'1314.2
2015-Feb-16 15:33N 24°22' E 119°05'1514.3
2015-Feb-16 14:32N 24°30' E 119°18'2713.8
2015-Feb-16 12:33N 24°47' E 119°42'1513.8
2015-Feb-16 11:29N 24°55' E 119°55'29814.9
2015-Feb-15 15:33N 29°18' E 122°34'1815.4
2015-Feb-15 14:25N 29°35' E 122°32'1315.1
2015-Feb-15 13:33N 29°44' E 122°20'1212.5
2015-Feb-15 12:34N 29°53' E 122°10'6 5.7
2015-Feb-15 11:25N 29°53' E 122°03'0 0.0
2015-Feb-15 10:31N 29°53' E 122°03'0 0.1
2015-Feb-15 09:33N 29°53' E 122°03'0 0.1
2015-Feb-15 08:32N 29°53' E 122°03'0 0.0
2015-Feb-15 04:17N 29°53' E 122°03'0 0.0
2015-Feb-15 02:29N 29°53' E 122°03'0 0.0
2015-Feb-15 01:23N 29°53' E 122°03'0 0.0
2015-Feb-14 23:05N 29°53' E 122°03'0 0.0
2015-Feb-14 22:23N 29°53' E 122°03'0 0.0
2015-Feb-14 21:17N 29°53' E 122°03'0 0.0
2015-Feb-14 19:05N 29°53' E 122°03'0 0.0
2015-Feb-14 18:29N 29°53' E 122°03'0 0.0
2015-Feb-14 17:22N 29°53' E 122°03'0 0.0
2015-Feb-14 16:22N 29°53' E 122°03'0 0.0
2015-Feb-14 15:23N 29°53' E 122°03'3 3.5
2015-Feb-14 14:33N 29°55' E 122°06'1111.4
2015-Feb-14 13:33N 29°47' E 122°16'9 8.7
2015-Feb-14 12:33N 29°44' E 122°25'9 8.6
2015-Feb-14 11:34N 29°49' E 122°33'9 9.3
2015-Feb-14 10:33N 29°53' E 122°43'1210.9
2015-Feb-14 09:26N 29°60' E 122°55'8 8.3
2015-Feb-14 08:30N 30°03' E 123°03'22 1.8
2015-Feb-13 20:33N 30°23' E 122°53'8 8.1
2015-Feb-13 19:33N 30°28' E 122°45'8 7.8
2015-Feb-13 18:32N 30°31' E 122°37'17 8.4
2015-Feb-13 16:30N 30°33' E 122°17'1212.9
2015-Feb-13 15:34N 30°37' E 122°04'2 1.6
2015-Feb-13 14:31N 30°38' E 122°03'  
Track history (hours):
 
Tides and Currents Weather Stations Pressure Air Temp Water Temp Dewpoint Dewpoint Depression Visibility Wind Speed Wind Dir Waves Ship Positions

Arthur Maersk

Last reported at 2015-Feb-23 13:33 UTC. Time now 2015-Mar-03 08:57 UTC.
Position N 01°51' E 102°28'.

Length 352 m; draft 12.5 m.

Type: Cargo ship. MMSI: 220221000.

Date/timePositionNaut miles runAvg speedWind from/ knotsBaromVisibWave heightAir tempDewpointWater temp
2015-Feb-23 13:33N 01°51' E 102°28'6420.3
2015-Feb-23 10:24N 01°16' E 103°21'2412.4
2015-Feb-23 08:28N 01°16' E 103°45'0 0.4
2015-Feb-23 07:11N 01°16' E 103°46'0 0.0
2015-Feb-23 03:26N 01°16' E 103°46'4 0.1
2015-Feb-22 00:24N 01°13' E 103°48'6 6.1
2015-Feb-21 23:25N 01°13' E 103°54'5 5.9
2015-Feb-21 22:32N 01°15' E 103°58'6 5.8
2015-Feb-21 21:33N 01°16' E 104°04'6 6.0
2015-Feb-21 20:33N 01°17' E 104°10'2 2.3
2015-Feb-21 19:33N 01°17' E 104°12'3 2.7
2015-Feb-21 18:33N 01°18' E 104°15'4 3.3
2015-Feb-21 17:30N 01°19' E 104°18'  
2015-Feb-18 08:21N 21°57' E 114°27'1617.5
2015-Feb-18 07:27N 22°12' E 114°30'26 8.8
2015-Feb-18 04:31N 22°34' E 114°16'0 0.0
2015-Feb-17 16:31N 22°34' E 114°16'1 0.6
2015-Feb-17 15:30N 22°34' E 114°17'17 8.4
2015-Feb-17 13:32N 22°23' E 114°30'20212.4
2015-Feb-16 21:20N 23°34' E 117°55'1013.2
2015-Feb-16 20:33N 23°40' E 118°04'1513.7
2015-Feb-16 19:30N 23°48' E 118°17'1313.8
2015-Feb-16 18:33N 23°56' E 118°28'1614.1
2015-Feb-16 17:27N 24°05' E 118°42'1414.0
2015-Feb-16 16:27N 24°14' E 118°54'1314.2
2015-Feb-16 15:33N 24°22' E 119°05'1514.3
2015-Feb-16 14:32N 24°30' E 119°18'2713.8
2015-Feb-16 12:33N 24°47' E 119°42'1513.8
2015-Feb-16 11:29N 24°55' E 119°55'29814.9
2015-Feb-15 15:33N 29°18' E 122°34'1815.4
2015-Feb-15 14:25N 29°35' E 122°32'1315.1
2015-Feb-15 13:33N 29°44' E 122°20'1212.5
2015-Feb-15 12:34N 29°53' E 122°10'6 5.7
2015-Feb-15 11:25N 29°53' E 122°03'0 0.0
2015-Feb-15 10:31N 29°53' E 122°03'0 0.1
2015-Feb-15 09:33N 29°53' E 122°03'0 0.1
2015-Feb-15 08:32N 29°53' E 122°03'0 0.0
2015-Feb-15 04:17N 29°53' E 122°03'0 0.0
2015-Feb-15 02:29N 29°53' E 122°03'0 0.0
2015-Feb-15 01:23N 29°53' E 122°03'0 0.0
2015-Feb-14 23:05N 29°53' E 122°03'0 0.0
2015-Feb-14 22:23N 29°53' E 122°03'0 0.0
2015-Feb-14 21:17N 29°53' E 122°03'0 0.0
2015-Feb-14 19:05N 29°53' E 122°03'0 0.0
2015-Feb-14 18:29N 29°53' E 122°03'0 0.0
2015-Feb-14 17:22N 29°53' E 122°03'0 0.0
2015-Feb-14 16:22N 29°53' E 122°03'0 0.0
2015-Feb-14 15:23N 29°53' E 122°03'3 3.5
2015-Feb-14 14:33N 29°55' E 122°06'1111.4
2015-Feb-14 13:33N 29°47' E 122°16'9 8.7
2015-Feb-14 12:33N 29°44' E 122°25'9 8.6
2015-Feb-14 11:34N 29°49' E 122°33'9 9.3
2015-Feb-14 10:33N 29°53' E 122°43'1210.9
2015-Feb-14 09:26N 29°60' E 122°55'8 8.3
2015-Feb-14 08:30N 30°03' E 123°03'22 1.8
2015-Feb-13 20:33N 30°23' E 122°53'8 8.1
2015-Feb-13 19:33N 30°28' E 122°45'8 7.8
2015-Feb-13 18:32N 30°31' E 122°37'17 8.4
2015-Feb-13 16:30N 30°33' E 122°17'1212.9
2015-Feb-13 15:34N 30°37' E 122°04'2 1.6
2015-Feb-13 14:31N 30°38' E 122°03'  

Dump ship's entire track history